Time;durP1;ratioP1;P1;durP2;ratioP2;P2;SDS_P1;SDS_P2;PMS_P1;PMS_P2;Temp;Humidity;BMP_temperature;BMP_pressure;BME280_temperature;BME280_humidity;BME280_pressure;Samples;Min_cycle;Max_cycle;Signal;HPM_P1;HPM_P2
2022/02/20 00:00:58;;;;;;;3.90;0.90;;;;;;;1.07;91.28;93075.50;2093655;28;20437;-85
2022/02/20 00:01:59;;;;;;;5.95;1.10;;;;;;;0.96;92.31;93068.19;2097723;28;20012;-86
2022/02/20 00:03:00;;;;;;;7.03;1.30;;;;;;;0.90;93.38;93067.00;2104158;28;20040;-84
2022/02/20 00:04:02;;;;;;;8.55;1.63;;;;;;;0.94;93.06;93075.69;2097677;28;20024;-84
2022/02/20 00:05:04;;;;;;;6.38;0.95;;;;;;;1.17;91.85;93077.50;2089342;28;20056;-83
2022/02/20 00:06:05;;;;;;;4.65;1.30;;;;;;;1.09;91.92;93075.88;2088015;28;20021;-84
2022/02/20 00:07:06;;;;;;;7.53;1.00;;;;;;;1.04;92.69;93074.31;2097610;28;20024;-86
2022/02/20 00:08:07;;;;;;;4.82;1.08;;;;;;;0.97;92.61;93075.00;2105880;28;20028;-84
2022/02/20 00:09:08;;;;;;;4.00;1.00;;;;;;;1.00;93.83;93082.16;2096994;28;20031;-83
2022/02/20 00:10:09;;;;;;;4.18;1.10;;;;;;;1.09;91.58;93091.66;2103762;28;20030;-85
2022/02/20 00:11:10;;;;;;;3.83;1.02;;;;;;;1.07;90.48;93078.88;2096592;28;20091;-85
2022/02/20 00:12:11;;;;;;;4.68;0.90;;;;;;;1.11;92.27;93089.44;2093942;28;20034;-84
2022/02/20 00:13:16;;;;;;;5.32;1.17;;;;;;;1.13;93.14;93082.69;2101481;28;20027;-83
2022/02/20 00:14:17;;;;;;;3.92;0.98;;;;;;;1.21;92.69;93089.59;2111182;27;20356;-85
2022/02/20 00:15:18;;;;;;;4.18;0.98;;;;;;;1.21;92.26;93080.94;2118639;27;20027;-83
2022/02/20 00:16:19;;;;;;;5.32;1.52;;;;;;;1.11;93.07;93084.19;2106926;28;20503;-81
2022/02/20 00:17:20;;;;;;;4.15;0.85;;;;;;;1.20;91.50;93080.16;2106119;28;20028;-83
2022/02/20 00:18:21;;;;;;;7.63;1.00;;;;;;;1.20;93.61;93088.06;2105901;28;20016;-82
2022/02/20 00:19:22;;;;;;;6.85;1.10;;;;;;;1.38;92.50;93092.81;2105087;28;20069;-80
2022/02/20 00:20:30;;;;;;;5.85;1.27;;;;;;;1.18;94.08;93103.44;2096516;28;20063;-83
2022/02/20 00:21:31;;;;;;;12.20;1.45;;;;;;;1.11;95.42;93102.63;2090292;28;20109;-81
2022/02/20 00:22:33;;;;;;;3.13;0.90;;;;;;;1.04;95.72;93108.53;2096138;28;20051;-82
2022/02/20 00:23:34;;;;;;;2.35;0.95;;;;;;;1.07;97.09;93101.81;2097686;28;20020;-82
2022/02/20 00:24:35;;;;;;;4.28;1.08;;;;;;;1.34;95.52;93103.28;2106123;28;20016;-83
2022/02/20 00:25:37;;;;;;;12.27;1.38;;;;;;;1.16;97.77;93095.16;2091366;28;20025;-81
2022/02/20 00:26:38;;;;;;;6.90;1.77;;;;;;;1.10;99.08;93098.44;2092402;28;20039;-81
2022/02/20 00:27:39;;;;;;;4.70;1.20;;;;;;;0.97;100.00;93106.56;2091070;28;20067;-82
2022/02/20 00:28:40;;;;;;;4.43;1.15;;;;;;;1.09;100.00;93113.47;2106212;28;20020;-81
2022/02/20 00:29:41;;;;;;;7.03;1.17;;;;;;;1.06;100.00;93116.84;2102092;28;20474;-82
2022/02/20 00:30:43;;;;;;;2.03;0.88;;;;;;;1.19;100.00;93117.41;2102489;28;20123;-80
2022/02/20 00:31:44;;;;;;;2.30;0.90;;;;;;;1.06;100.00;93119.47;2097230;28;20020;-82
2022/02/20 00:32:45;;;;;;;3.25;0.95;;;;;;;0.87;100.00;93114.28;2095356;28;20020;-82
2022/02/20 00:33:46;;;;;;;5.43;0.90;;;;;;;0.94;100.00;93117.03;2097590;28;20020;-81
2022/02/20 00:34:46;;;;;;;6.35;1.00;;;;;;;0.85;100.00;93124.44;2097475;28;20016;-81
2022/02/20 00:35:47;;;;;;;6.15;1.45;;;;;;;0.74;100.00;93111.09;2097543;28;20024;-82
2022/02/20 00:36:48;;;;;;;7.03;1.08;;;;;;;0.77;100.00;93113.03;2101851;28;20031;-81
2022/02/20 00:37:50;;;;;;;6.10;1.50;;;;;;;0.67;100.00;93111.00;2112340;28;20030;-83
2022/02/20 00:38:51;;;;;;;4.57;1.38;;;;;;;0.65;100.00;93111.34;2102980;28;20027;-82
2022/02/20 00:39:52;;;;;;;8.00;1.00;;;;;;;0.79;100.00;93105.56;2093609;28;20028;-83
2022/02/20 00:40:53;;;;;;;2.05;0.90;;;;;;;0.80;100.00;93096.56;2092127;28;20057;-81
2022/02/20 00:41:54;;;;;;;3.65;1.00;;;;;;;0.87;100.00;93104.53;2096882;28;20017;-83
2022/02/20 00:42:55;;;;;;;4.32;1.00;;;;;;;0.87;100.00;93112.41;2097545;28;20016;-82
2022/02/20 00:43:56;;;;;;;3.92;0.90;;;;;;;1.10;100.00;93101.06;2105828;28;20020;-81
2022/02/20 00:44:57;;;;;;;6.63;1.20;;;;;;;0.86;100.00;93103.00;2097586;28;20016;-82
2022/02/20 00:45:58;;;;;;;4.60;1.63;;;;;;;0.83;100.00;93101.09;2105701;28;20047;-82
2022/02/20 00:46:59;;;;;;;2.80;0.98;;;;;;;0.83;100.00;93101.09;2105318;28;20019;-82
2022/02/20 00:48:01;;;;;;;5.28;1.27;;;;;;;0.90;100.00;93110.97;2112004;28;20424;-83
2022/02/20 00:49:02;;;;;;;7.07;0.95;;;;;;;0.77;100.00;93101.75;2108002;28;20028;-83
2022/02/20 00:50:03;;;;;;;5.43;0.90;;;;;;;0.73;100.00;93102.44;2106140;28;20024;-82
2022/02/20 00:51:04;;;;;;;6.07;1.10;;;;;;;0.82;100.00;93104.09;2090806;28;20108;-83
2022/02/20 00:52:06;;;;;;;3.30;1.10;;;;;;;0.89;100.00;93102.31;2084403;28;20044;-83
2022/02/20 00:53:06;;;;;;;7.05;1.50;;;;;;;0.75;100.00;93115.28;2089623;28;21458;-81
2022/02/20 00:54:15;;;;;;;6.00;1.25;;;;;;;0.58;100.00;93100.72;2087932;28;20025;-83
2022/02/20 00:55:16;;;;;;;4.25;1.08;;;;;;;0.48;100.00;93101.31;2107893;27;20089;-83
2022/02/20 00:56:17;;;;;;;7.32;1.30;;;;;;;0.66;100.00;93096.31;2101388;28;20097;-83
2022/02/20 00:57:20;;;;;;;2.95;1.20;;;;;;;0.64;100.00;93101.94;2104070;28;20497;-81
2022/02/20 00:58:21;;;;;;;6.10;1.17;;;;;;;0.71;100.00;93103.94;2105140;28;20093;-81
2022/02/20 00:59:22;;;;;;;4.38;1.02;;;;;;;0.60;100.00;93106.38;2101661;28;21204;-83
2022/02/20 01:00:24;;;;;;;3.90;1.00;;;;;;;0.60;100.00;93109.03;2089010;28;20444;-82
2022/02/20 01:01:25;;;;;;;5.97;0.95;;;;;;;0.54;100.00;93104.44;2106863;28;20023;-84
2022/02/20 01:02:26;;;;;;;3.63;0.98;;;;;;;0.54;100.00;93097.28;2096552;28;20452;-83
2022/02/20 01:03:27;;;;;;;5.00;1.00;;;;;;;0.50;100.00;93101.72;2097524;28;20584;-82
2022/02/20 01:04:28;;;;;;;6.57;1.02;;;;;;;0.52;100.00;93099.50;2103922;28;20054;-82
2022/02/20 01:05:29;;;;;;;3.38;1.00;;;;;;;0.75;100.00;93091.59;2111195;28;20030;-84
2022/02/20 01:06:30;;;;;;;5.18;1.35;;;;;;;0.54;100.00;93089.41;2097259;28;20031;-82
2022/02/20 01:07:32;;;;;;;7.63;1.13;;;;;;;0.46;100.00;93093.78;2091545;28;20049;-84
2022/02/20 01:08:33;;;;;;;2.78;0.98;;;;;;;0.40;100.00;93092.56;2097820;28;20024;-85
2022/02/20 01:09:34;;;;;;;6.47;1.00;;;;;;;0.40;100.00;93104.97;2097476;28;20055;-84
2022/02/20 01:10:35;;;;;;;4.20;1.00;;;;;;;0.38;100.00;93107.16;2107647;28;20595;-84
2022/02/20 01:11:36;;;;;;;3.88;1.30;;;;;;;0.56;100.00;93096.94;2103322;28;20024;-86
2022/02/20 01:12:37;;;;;;;8.63;1.88;;;;;;;0.49;100.00;93092.34;2100222;28;20074;-85
2022/02/20 01:13:38;;;;;;;2.35;0.90;;;;;;;0.44;100.00;93105.75;2093009;28;20124;-85
2022/02/20 01:14:52;;;;;;;4.45;1.77;;;;;;;0.50;100.00;93096.47;2100319;28;20043;-84
2022/02/20 01:15:52;;;;;;;4.30;0.95;;;;;;;0.46;100.00;93096.41;2110226;28;20101;-85
2022/02/20 01:16:53;;;;;;;5.72;0.90;;;;;;;0.54;100.00;93088.66;2111783;28;20015;-84
2022/02/20 01:17:54;;;;;;;3.17;0.82;;;;;;;0.39;100.00;93080.50;2102493;28;20062;-84
2022/02/20 01:18:55;;;;;;;8.48;1.90;;;;;;;0.56;100.00;93096.94;2102597;28;20035;-85
2022/02/20 01:19:56;;;;;;;5.60;0.82;;;;;;;0.60;100.00;93098.50;2104579;28;20869;-84
2022/02/20 01:20:57;;;;;;;5.72;1.02;;;;;;;0.56;100.00;93089.03;2105557;28;20020;-84
2022/02/20 01:21:58;;;;;;;3.55;0.90;;;;;;;0.50;100.00;93097.22;2088960;28;20020;-85
2022/02/20 01:22:59;;;;;;;5.03;0.90;;;;;;;0.41;100.00;93085.44;2097088;28;20012;-86
2022/02/20 01:24:00;;;;;;;4.00;1.08;;;;;;;0.33;100.00;93087.19;2102397;28;20111;-85
2022/02/20 01:25:02;;;;;;;6.03;0.95;;;;;;;0.52;100.00;93090.84;2105342;28;20024;-85
2022/02/20 01:26:03;;;;;;;3.55;0.90;;;;;;;0.47;100.00;93084.03;2105308;28;20659;-83
2022/02/20 01:27:04;;;;;;;5.78;0.80;;;;;;;0.57;100.00;93093.19;2103264;28;20027;-86
2022/02/20 01:28:05;;;;;;;6.30;0.95;;;;;;;0.52;100.00;93088.97;2097270;28;20017;-84
2022/02/20 01:29:06;;;;;;;3.22;1.02;;;;;;;0.46;100.00;93096.41;2084488;28;20025;-84
2022/02/20 01:30:07;;;;;;;4.13;0.98;;;;;;;0.71;100.00;93096.81;2097247;28;20032;-84
2022/02/20 01:31:08;;;;;;;5.15;0.90;;;;;;;0.72;100.00;93102.81;2106409;28;20016;-85
2022/02/20 01:32:09;;;;;;;2.78;0.70;;;;;;;0.70;100.00;93103.19;2105444;28;20060;-85
2022/02/20 01:33:10;;;;;;;4.53;1.00;;;;;;;0.67;100.00;93103.88;2104421;28;20453;-84
2022/02/20 01:34:11;;;;;;;3.33;0.85;;;;;;;0.65;100.00;93105.34;2105486;28;20047;-84
2022/02/20 01:35:15;;;;;;;4.18;0.98;;;;;;;0.75;100.00;93099.50;2091001;28;20028;-85
2022/02/20 01:36:16;;;;;;;2.92;0.98;;;;;;;0.77;100.00;93101.75;2097539;28;20420;-84
2022/02/20 01:37:17;;;;;;;4.50;0.90;;;;;;;0.77;100.00;93099.88;2088708;28;20056;-84
2022/02/20 01:38:17;;;;;;;2.70;1.00;;;;;;;0.73;100.00;93099.06;2094937;28;20033;-86
2022/02/20 01:39:19;;;;;;;3.50;1.15;;;;;;;0.97;100.00;93105.81;2105496;28;20020;-84
2022/02/20 01:40:20;;;;;;;6.00;0.90;;;;;;;0.91;100.00;93102.72;2111690;28;20053;-84
2022/02/20 01:41:21;;;;;;;5.90;1.02;;;;;;;0.82;100.00;93088.28;2096769;28;20056;-85
2022/02/20 01:42:22;;;;;;;6.10;1.05;;;;;;;0.72;100.00;93105.44;2103486;28;20131;-85
2022/02/20 01:43:24;;;;;;;4.13;1.30;;;;;;;0.72;100.00;93097.56;2102120;28;20484;-85
2022/02/20 01:44:25;;;;;;;5.45;1.17;;;;;;;0.71;100.00;93111.81;2095275;28;20032;-84
2022/02/20 01:45:26;;;;;;;3.45;0.98;;;;;;;0.72;100.00;93113.34;2102506;28;20338;-85
2022/02/20 01:46:27;;;;;;;3.28;1.05;;;;;;;0.62;100.00;93117.34;2111852;28;20027;-84
2022/02/20 01:47:29;;;;;;;9.75;1.25;;;;;;;0.55;100.00;93114.59;2094548;28;20369;-84
2022/02/20 01:48:35;;;;;;;6.50;1.10;;;;;;;0.58;100.00;93108.63;2088855;28;20052;-83
2022/02/20 01:49:36;;;;;;;4.88;1.13;;;;;;;0.86;100.00;93115.41;2098493;28;20381;-84
2022/02/20 01:50:37;;;;;;;5.97;1.38;;;;;;;0.75;100.00;93105.50;2114011;28;20470;-84
2022/02/20 01:51:38;;;;;;;4.63;1.15;;;;;;;0.80;100.00;93106.31;2103835;28;20027;-84
2022/02/20 01:52:39;;;;;;;3.83;0.80;;;;;;;0.92;100.00;93111.34;2088725;28;20041;-85
2022/02/20 01:53:41;;;;;;;4.53;0.80;;;;;;;0.86;100.00;93104.88;2096823;28;20024;-85
2022/02/20 01:54:42;;;;;;;6.85;1.25;;;;;;;0.88;100.00;93108.69;2111714;28;20019;-84
2022/02/20 01:55:44;;;;;;;8.60;2.25;;;;;;;0.80;100.00;93106.31;2104581;28;20111;-83
2022/02/20 01:56:45;;;;;;;2.65;0.75;;;;;;;0.71;100.00;93109.94;2097125;28;20017;-84
2022/02/20 01:57:46;;;;;;;2.05;0.85;;;;;;;0.69;100.00;93093.75;2105515;28;20020;-86
2022/02/20 01:58:47;;;;;;;5.10;1.33;;;;;;;0.77;100.00;93102.50;2113139;28;20016;-84
2022/02/20 01:59:50;;;;;;;4.78;1.10;;;;;;;0.89;100.00;93101.56;2113591;28;20023;-84
2022/02/20 02:00:51;;;;;;;9.38;1.33;;;;;;;0.82;100.00;93094.31;2109431;28;20758;-83
2022/02/20 02:01:54;;;;;;;5.78;0.98;;;;;;;0.99;100.00;93101.69;2099230;28;20074;-84
2022/02/20 02:02:55;;;;;;;2.30;0.80;;;;;;;1.05;100.00;93110.03;2100552;28;20048;-83
2022/02/20 02:03:56;;;;;;;2.63;0.93;;;;;;;1.05;100.00;93099.50;2093822;28;20111;-84
2022/02/20 02:04:57;;;;;;;12.02;1.77;;;;;;;0.93;100.00;93134.72;2091767;28;20032;-83
2022/02/20 02:05:59;;;;;;;2.50;0.95;;;;;;;0.97;100.00;93111.09;2091318;28;20107;-83
2022/02/20 02:07:00;;;;;;;2.00;0.80;;;;;;;0.88;100.00;93106.06;2085936;28;20454;-86
2022/02/20 02:08:01;;;;;;;3.60;0.80;;;;;;;0.86;100.00;93110.91;2096078;28;20107;-84
2022/02/20 02:09:02;;;;;;;5.55;0.90;;;;;;;0.77;100.00;93110.41;2099722;28;20020;-83
2022/02/20 02:11:23;;;;;;;3.58;1.20;;;;;;;0.79;100.00;93116.09;2143081;27;20166;-81
2022/02/20 02:12:24;;;;;;;4.45;1.25;;;;;;;1.08;100.00;93105.94;2140270;27;20049;-82
2022/02/20 02:13:25;;;;;;;2.35;0.80;;;;;;;1.06;100.00;93114.22;2118932;28;20452;-82
2022/02/20 02:14:26;;;;;;;4.47;0.80;;;;;;;0.97;100.00;93114.47;2103337;27;20108;-83
2022/02/20 02:15:27;;;;;;;5.03;0.80;;;;;;;0.91;100.00;93110.59;2106452;27;20039;-83
2022/02/20 02:16:45;;;;;;;2.67;0.82;;;;;;;1.20;100.00;93114.41;2106418;28;20028;-82
2022/02/20 02:17:46;;;;;;;4.10;0.85;;;;;;;1.07;100.00;93115.72;2108232;27;20020;-81
2022/02/20 02:18:47;;;;;;;3.53;0.98;;;;;;;1.08;100.00;93127.75;2114723;28;20030;-83
2022/02/20 02:19:48;;;;;;;5.13;0.90;;;;;;;1.03;100.00;93119.41;2109865;28;20020;-82
2022/02/20 02:20:49;;;;;;;4.63;1.17;;;;;;;0.96;100.00;93117.44;2114566;28;20012;-83
2022/02/20 02:21:50;;;;;;;3.45;0.75;;;;;;;1.37;100.00;93117.63;2112408;28;20030;-81
2022/02/20 02:22:51;;;;;;;3.45;0.80;;;;;;;1.34;100.00;93115.69;2118634;27;20016;-82
2022/02/20 02:23:52;;;;;;;3.70;0.85;;;;;;;1.29;100.00;93116.00;2120213;27;20476;-83
2022/02/20 02:24:56;;;;;;;4.15;1.00;;;;;;;1.49;100.00;93112.09;2123425;27;20022;-83
2022/02/20 02:25:57;;;;;;;5.57;1.20;;;;;;;1.56;100.00;93114.09;2112951;28;20027;-83
2022/02/20 02:26:58;;;;;;;3.15;0.98;;;;;;;1.28;100.00;93115.25;2110516;28;20403;-83
2022/02/20 02:27:59;;;;;;;7.05;1.05;;;;;;;1.09;100.00;93121.38;2103049;28;20121;-82
2022/02/20 02:29:00;;;;;;;3.03;1.00;;;;;;;1.05;100.00;93122.44;2109240;28;20061;-82
2022/02/20 02:30:06;;;;;;;1.33;0.70;;;;;;;1.11;100.00;93121.03;2131418;27;20026;-83
2022/02/20 02:31:09;;;;;;;6.18;1.27;;;;;;;1.33;100.00;93116.81;2127945;27;20084;-81
2022/02/20 02:32:17;;;;;;;5.00;0.98;;;;;;;1.40;100.00;93117.66;2120224;27;20014;-82
2022/02/20 02:33:26;;;;;;;3.40;0.95;;;;;;;1.37;100.00;93117.63;2105450;28;20031;-83
2022/02/20 02:34:27;;;;;;;5.30;0.98;;;;;;;1.33;100.00;93114.94;2105834;27;20055;-84
2022/02/20 02:35:28;;;;;;;1.55;0.80;;;;;;;1.22;100.00;93116.66;2106100;28;20020;-83
2022/02/20 02:36:29;;;;;;;4.50;0.80;;;;;;;1.31;100.00;93119.03;2115838;28;20115;-83
2022/02/20 02:37:31;;;;;;;2.30;0.85;;;;;;;1.20;100.00;93124.94;2116712;28;20026;-84
2022/02/20 02:38:33;;;;;;;5.07;1.63;;;;;;;1.28;100.00;93125.78;2104517;27;20043;-83
2022/02/20 02:39:34;;;;;;;6.43;0.90;;;;;;;1.20;100.00;93116.28;2112905;27;20518;-85
2022/02/20 02:40:35;;;;;;;3.25;0.85;;;;;;;1.40;100.00;93119.53;2110916;28;20019;-83
2022/02/20 02:41:36;;;;;;;4.65;0.80;;;;;;;1.26;100.00;93106.94;2106886;27;20105;-85
2022/02/20 02:42:38;;;;;;;3.22;0.80;;;;;;;1.15;100.00;93111.31;2110974;28;20109;-84
2022/02/20 02:43:39;;;;;;;5.57;0.95;;;;;;;1.28;100.00;93120.53;2122933;27;20027;-84
2022/02/20 02:44:41;;;;;;;2.72;0.82;;;;;;;1.22;100.00;93106.88;2104338;28;20052;-84
2022/02/20 02:45:42;;;;;;;3.80;0.98;;;;;;;1.11;100.00;93111.25;2114826;27;20098;-84
2022/02/20 02:46:42;;;;;;;5.50;0.98;;;;;;;1.25;100.00;93113.31;2111898;28;20024;-83
2022/02/20 02:47:46;;;;;;;5.15;0.90;;;;;;;1.16;100.00;93118.84;2115777;27;20450;-85
2022/02/20 02:48:48;;;;;;;2.92;0.70;;;;;;;1.22;100.00;93109.53;2113928;28;20023;-83
2022/02/20 02:49:49;;;;;;;5.15;0.82;;;;;;;1.26;100.00;93109.56;2112169;28;20782;-83
2022/02/20 02:50:50;;;;;;;2.70;0.80;;;;;;;1.17;100.00;93104.56;2119113;28;20106;-83
2022/02/20 02:51:51;;;;;;;10.43;1.10;;;;;;;1.26;100.00;93110.31;2116904;27;20024;-85
2022/02/20 02:52:52;;;;;;;1.90;0.93;;;;;;;1.36;100.00;93110.81;2114040;27;20023;-85
2022/02/20 02:53:58;;;;;;;3.70;0.85;;;;;;;1.31;100.00;93105.88;2120737;27;20058;-84
2022/02/20 02:54:59;;;;;;;4.88;1.10;;;;;;;1.33;100.00;93112.31;2119844;27;20134;-84
2022/02/20 02:56:00;;;;;;;3.25;1.15;;;;;;;1.38;100.00;93105.97;2120623;27;20133;-84
2022/02/20 02:57:02;;;;;;;3.65;0.93;;;;;;;1.42;100.00;93114.66;2119579;27;20027;-85
2022/02/20 02:58:05;;;;;;;3.63;0.77;;;;;;;1.29;100.00;93113.38;2126412;27;20033;-86
2022/02/20 02:59:06;;;;;;;3.95;1.00;;;;;;;1.25;100.00;93108.81;2114521;28;20092;-85
2022/02/20 03:00:07;;;;;;;1.70;0.73;;;;;;;1.39;100.00;93104.84;2120235;27;20098;-84
2022/02/20 03:01:08;;;;;;;3.55;1.20;;;;;;;1.36;100.00;93116.88;2120724;27;20019;-85
2022/02/20 03:02:09;;;;;;;5.63;1.45;;;;;;;1.40;100.00;93112.38;2105940;28;20591;-84
2022/02/20 03:03:10;;;;;;;5.32;1.13;;;;;;;1.27;100.00;93113.72;2101911;27;20024;-83
2022/02/20 03:04:11;;;;;;;5.25;1.10;;;;;;;1.37;100.00;93123.66;2111990;28;20024;-85
2022/02/20 03:05:12;;;;;;;4.25;0.90;;;;;;;1.39;100.00;93110.88;2111506;28;20016;-85
2022/02/20 03:06:15;;;;;;;6.38;1.13;;;;;;;1.25;100.00;93114.09;2107967;28;20050;-84
2022/02/20 03:07:16;;;;;;;5.25;1.20;;;;;;;1.25;100.00;93115.97;2118674;27;21198;-84
2022/02/20 03:08:17;;;;;;;1.92;0.77;;;;;;;1.21;100.00;93125.69;2123879;27;20027;-84
2022/02/20 03:09:17;;;;;;;1.90;0.80;;;;;;;1.18;100.00;93119.25;2117677;28;20019;-85
2022/02/20 03:10:18;;;;;;;6.00;1.05;;;;;;;1.35;100.00;93123.22;2111427;28;20377;-83
2022/02/20 03:11:20;;;;;;;4.95;1.08;;;;;;;1.48;100.00;93124.53;2111616;28;20047;-84
2022/02/20 03:12:20;;;;;;;2.30;0.90;;;;;;;1.64;100.00;93123.59;2112183;27;20024;-85
2022/02/20 03:13:21;;;;;;;3.03;0.90;;;;;;;1.57;100.00;93121.63;2116784;28;20468;-84
2022/02/20 03:14:23;;;;;;;3.25;0.77;;;;;;;1.64;100.00;93118.31;2118281;27;20500;-84
2022/02/20 03:15:24;;;;;;;4.68;0.90;;;;;;;1.50;100.00;93114.41;2116467;28;20051;-85
2022/02/20 03:16:25;;;;;;;6.10;1.10;;;;;;;1.60;100.00;93117.53;2113925;28;20668;-84
2022/02/20 03:17:26;;;;;;;2.80;1.30;;;;;;;1.66;100.00;93111.56;2124952;27;20106;-84
2022/02/20 03:18:30;;;;;;;4.85;1.05;;;;;;;1.46;100.00;93110.22;2121002;27;20015;-84
2022/02/20 03:19:31;;;;;;;3.42;1.10;;;;;;;1.44;100.00;93112.44;2121809;27;20019;-83
2022/02/20 03:20:32;;;;;;;1.30;0.77;;;;;;;1.54;100.00;93119.72;2114958;28;20019;-84
2022/02/20 03:21:33;;;;;;;5.50;1.10;;;;;;;1.50;100.00;93114.41;2114429;27;20020;-84
2022/02/20 03:22:34;;;;;;;3.75;0.95;;;;;;;1.63;100.00;93114.19;2110549;28;20020;-85
2022/02/20 03:23:35;;;;;;;3.08;0.88;;;;;;;1.64;100.00;93115.69;2110355;28;20456;-84
2022/02/20 03:24:36;;;;;;;3.67;1.08;;;;;;;1.42;100.00;93112.78;2110411;27;20490;-85
2022/02/20 03:25:37;;;;;;;5.88;0.80;;;;;;;1.35;100.00;93123.22;2111040;27;20500;-85
2022/02/20 03:26:38;;;;;;;3.95;1.10;;;;;;;1.31;100.00;93125.06;2106273;28;20027;-86
2022/02/20 03:27:39;;;;;;;1.60;0.60;;;;;;;1.30;100.00;93128.06;2110698;28;20023;-84
2022/02/20 03:28:40;;;;;;;3.17;1.63;;;;;;;1.34;100.00;93128.84;2114816;28;20588;-84
2022/02/20 03:29:41;;;;;;;4.22;1.10;;;;;;;1.26;100.00;93128.75;2119287;27;20028;-84
2022/02/20 03:30:42;;;;;;;4.78;1.00;;;;;;;1.25;100.00;93145.69;2115032;28;20055;-86
2022/02/20 03:31:43;;;;;;;3.60;1.00;;;;;;;1.20;100.00;93132.06;2117068;27;20026;-85
2022/02/20 03:32:44;;;;;;;2.63;0.85;;;;;;;1.13;100.00;93130.09;2119461;27;20027;-85
2022/02/20 03:33:45;;;;;;;4.28;0.98;;;;;;;1.24;100.00;93130.25;2106223;28;20021;-85
2022/02/20 03:34:46;;;;;;;1.50;0.82;;;;;;;1.37;100.00;93133.44;2119443;27;20069;-85
2022/02/20 03:35:47;;;;;;;4.07;0.80;;;;;;;1.39;100.00;93136.44;2114803;28;20069;-85
2022/02/20 03:36:48;;;;;;;6.50;1.00;;;;;;;1.21;100.00;93126.44;2106404;28;20433;-86
2022/02/20 03:37:49;;;;;;;3.50;1.13;;;;;;;1.11;100.00;93128.94;2106337;28;20094;-84
2022/02/20 03:38:52;;;;;;;7.35;1.08;;;;;;;1.35;100.00;93139.03;2112021;28;20020;-84
2022/02/20 03:39:53;;;;;;;4.78;0.90;;;;;;;1.22;100.00;93119.28;2114724;28;20023;-83
2022/02/20 03:40:54;;;;;;;3.53;0.90;;;;;;;1.45;100.00;93127.88;2110273;28;20039;-84
2022/02/20 03:41:54;;;;;;;4.03;1.00;;;;;;;1.57;100.00;93124.25;2108148;28;20375;-84
2022/02/20 03:42:55;;;;;;;3.53;1.05;;;;;;;1.49;100.00;93120.78;2108306;28;20028;-84
2022/02/20 03:43:56;;;;;;;5.00;0.90;;;;;;;1.62;100.00;93112.63;2116973;27;20036;-84
2022/02/20 03:44:57;;;;;;;4.22;0.70;;;;;;;1.73;100.00;93131.97;2110624;28;20020;-84
2022/02/20 03:45:58;;;;;;;3.20;0.68;;;;;;;1.59;100.00;93124.66;2113866;28;20476;-84
2022/02/20 03:46:59;;;;;;;2.83;0.70;;;;;;;1.47;100.00;93130.16;2116865;27;20026;-83
2022/02/20 03:48:00;;;;;;;3.72;0.90;;;;;;;1.33;100.00;93128.09;2123732;27;20862;-85
2022/02/20 03:49:02;;;;;;;4.45;1.30;;;;;;;1.35;100.00;93123.22;2123926;27;20088;-84
2022/02/20 03:50:05;;;;;;;2.95;1.02;;;;;;;1.38;100.00;93125.16;2120892;27;20524;-84
2022/02/20 03:51:06;;;;;;;3.33;0.95;;;;;;;1.33;100.00;93117.56;2117991;27;20444;-84
2022/02/20 03:52:07;;;;;;;9.25;1.30;;;;;;;1.56;100.00;93132.53;2122816;27;20053;-83
2022/02/20 03:53:08;;;;;;;4.25;1.08;;;;;;;1.34;100.00;93131.50;2117171;27;20026;-84
2022/02/20 03:54:09;;;;;;;1.80;0.70;;;;;;;1.30;100.00;93133.31;2101846;28;20392;-84
2022/02/20 03:55:11;;;;;;;3.97;0.90;;;;;;;1.18;100.00;93134.28;2099446;28;20074;-84
2022/02/20 03:56:12;;;;;;;2.80;0.90;;;;;;;1.31;100.00;93129.56;2101983;28;20027;-85
2022/02/20 03:57:13;;;;;;;2.58;0.90;;;;;;;1.21;100.00;93136.22;2112117;28;20019;-85
2022/02/20 03:58:14;;;;;;;2.20;0.70;;;;;;;1.43;100.00;93135.38;2103692;28;20025;-84
2022/02/20 03:59:15;;;;;;;4.43;0.70;;;;;;;1.43;100.00;93131.97;2110270;27;20026;-84
2022/02/20 04:00:24;;;;;;;2.60;0.80;;;;;;;1.32;100.00;93138.97;2116993;27;20064;-84
2022/02/20 04:01:25;;;;;;;2.50;0.70;;;;;;;1.21;100.00;93144.09;2113684;27;20360;-84
2022/02/20 04:02:30;;;;;;;0.95;0.60;;;;;;;1.21;100.00;93138.84;2112679;28;20023;-84
2022/02/20 04:03:33;;;;;;;2.78;0.60;;;;;;;1.14;100.00;93146.63;2114084;27;20110;-84
2022/02/20 04:04:34;;;;;;;2.22;0.68;;;;;;;1.09;100.00;93136.41;2114386;27;20040;-84
2022/02/20 04:05:35;;;;;;;3.58;1.05;;;;;;;1.08;100.00;93140.91;2108458;28;20031;-84
2022/02/20 04:06:36;;;;;;;1.83;0.70;;;;;;;1.04;100.00;93142.00;2121874;27;20027;-85
2022/02/20 04:07:37;;;;;;;3.78;0.82;;;;;;;1.22;100.00;93143.00;2118573;27;20027;-84
2022/02/20 04:08:38;;;;;;;3.40;1.00;;;;;;;1.29;100.00;93137.81;2104037;28;20032;-84
2022/02/20 04:09:39;;;;;;;3.33;0.70;;;;;;;1.38;100.00;93148.84;2109852;28;20385;-85
2022/02/20 04:10:44;;;;;;;1.52;0.90;;;;;;;1.23;100.00;93134.00;2113566;28;20038;-84
2022/02/20 04:11:45;;;;;;;3.75;0.73;;;;;;;1.19;100.00;93154.25;2104408;27;20049;-84
2022/02/20 04:12:46;;;;;;;2.97;0.90;;;;;;;1.08;100.00;93142.78;2108777;28;20031;-85
2022/02/20 04:13:47;;;;;;;2.50;0.60;;;;;;;1.09;100.00;93142.44;2112946;28;20050;-84
2022/02/20 04:14:48;;;;;;;2.45;0.88;;;;;;;1.04;100.00;93145.38;2104099;28;20358;-85
2022/02/20 04:15:49;;;;;;;6.15;0.80;;;;;;;1.15;100.00;93135.75;2106396;28;20431;-85
2022/02/20 04:16:49;;;;;;;2.13;0.80;;;;;;;1.04;100.00;93142.00;2110001;28;20019;-84
2022/02/20 04:17:51;;;;;;;2.40;0.80;;;;;;;0.98;100.00;93139.66;2110283;28;20361;-85
2022/02/20 04:18:52;;;;;;;1.85;0.80;;;;;;;0.98;100.00;93139.66;2112302;27;20380;-84
2022/02/20 04:19:53;;;;;;;2.78;0.98;;;;;;;1.04;100.00;93149.88;2111068;28;20024;-84
2022/02/20 04:20:54;;;;;;;5.72;0.95;;;;;;;1.12;100.00;93143.59;2122532;27;20131;-85
2022/02/20 04:21:55;;;;;;;2.08;1.13;;;;;;;1.04;100.00;93140.09;2112112;28;20015;-85
2022/02/20 04:22:56;;;;;;;3.53;0.60;;;;;;;1.19;100.00;93144.47;2105976;28;20073;-84
2022/02/20 04:23:57;;;;;;;1.70;0.52;;;;;;;1.33;100.00;93141.28;2105878;28;20027;-83
2022/02/20 04:24:58;;;;;;;0.82;0.50;;;;;;;1.28;100.00;93140.81;2106035;28;20016;-84
2022/02/20 04:26:01;;;;;;;5.47;0.73;;;;;;;1.34;100.00;93142.78;2107855;28;20310;-85
2022/02/20 04:27:03;;;;;;;3.28;0.80;;;;;;;1.20;100.00;93145.22;2106107;28;20024;-84
2022/02/20 04:28:04;;;;;;;1.10;0.50;;;;;;;1.26;100.00;93141.91;2115192;27;20135;-85
2022/02/20 04:29:05;;;;;;;2.67;2.05;;;;;;;1.20;100.00;93143.34;2106128;28;20420;-85
2022/02/20 04:30:07;;;;;;;1.38;0.70;;;;;;;1.26;100.00;93146.44;2102466;28;20027;-85
2022/02/20 04:31:11;;;;;;;1.85;0.57;;;;;;;1.30;100.00;93144.59;2105338;28;20023;-85
2022/02/20 04:32:12;;;;;;;3.38;0.70;;;;;;;1.21;100.00;93146.75;2106231;27;20023;-85
2022/02/20 04:33:13;;;;;;;3.15;0.75;;;;;;;1.44;100.00;93147.41;2099621;28;20039;-86
2022/02/20 04:34:14;;;;;;;4.97;0.70;;;;;;;1.34;100.00;93144.66;2115429;28;20205;-84
2022/02/20 04:35:15;;;;;;;2.88;0.50;;;;;;;1.47;100.00;93148.59;2101984;28;20429;-85
2022/02/20 04:36:16;;;;;;;3.08;0.68;;;;;;;1.47;100.00;93138.06;2103443;28;20424;-84
2022/02/20 04:37:17;;;;;;;2.17;0.80;;;;;;;1.47;100.00;93138.06;2099854;28;20016;-84
2022/02/20 04:38:18;;;;;;;2.92;0.70;;;;;;;1.33;100.00;93138.63;2109999;27;20484;-85
2022/02/20 04:39:19;;;;;;;1.83;0.88;;;;;;;1.23;100.00;93147.16;2114301;28;20031;-86
2022/02/20 04:40:20;;;;;;;2.55;0.60;;;;;;;1.24;100.00;93153.94;2106803;28;20679;-86
2022/02/20 04:41:21;;;;;;;2.40;0.60;;;;;;;1.46;100.00;93152.34;2110946;28;20026;-85
2022/02/20 04:42:22;;;;;;;1.92;0.50;;;;;;;1.59;100.00;93155.53;2115358;27;20015;-84
2022/02/20 04:43:23;;;;;;;1.80;0.77;;;;;;;1.48;100.00;93158.75;2109870;28;20701;-84
2022/02/20 04:44:25;;;;;;;2.85;0.63;;;;;;;1.44;100.00;93151.94;2113607;28;20054;-84
2022/02/20 04:45:26;;;;;;;3.15;0.70;;;;;;;1.47;100.00;93159.88;2112112;28;20012;-84
2022/02/20 04:46:27;;;;;;;3.67;0.68;;;;;;;1.45;100.00;93162.13;2113693;28;20375;-86
2022/02/20 04:47:28;;;;;;;1.63;0.80;;;;;;;1.34;100.00;93166.47;2114070;28;20039;-85
2022/02/20 04:48:29;;;;;;;1.85;0.65;;;;;;;1.69;100.00;93165.44;2107272;28;20050;-83
2022/02/20 04:49:30;;;;;;;3.33;0.80;;;;;;;1.66;100.00;93166.88;2114166;28;20103;-84
2022/02/20 04:50:31;;;;;;;2.33;0.70;;;;;;;1.63;100.00;93164.22;2111698;28;20019;-83
2022/02/20 04:51:40;;;;;;;3.50;1.00;;;;;;;1.72;100.00;93172.63;2122531;27;20053;-84